createdAt,value
2018-07-05T00:00:09.086Z,26.10
2018-07-05T00:02:26.010Z,26.13
2018-07-05T00:04:40.666Z,26.13
2018-07-05T00:06:55.100Z,26.04
2018-07-05T00:09:12.421Z,26.00
2018-07-05T00:11:27.435Z,26.06
2018-07-05T00:13:42.009Z,26.10
2018-07-05T00:15:56.728Z,26.03
2018-07-05T00:18:13.349Z,26.18
2018-07-05T00:20:28.006Z,25.93
2018-07-05T00:22:42.531Z,26.04
2018-07-05T00:24:57.341Z,26.05
2018-07-05T00:27:13.684Z,25.93
2018-07-05T00:29:29.151Z,25.82
2018-07-05T00:31:43.688Z,25.86
2018-07-05T00:33:58.498Z,25.78
2018-07-05T00:36:14.514Z,25.83
2018-07-05T00:38:31.106Z,25.82
2018-07-05T00:40:45.762Z,25.81
2018-07-05T00:43:00.485Z,25.77
2018-07-05T00:45:15.863Z,26.07
2018-07-05T00:47:31.155Z,26.06
2018-07-05T00:49:45.857Z,26.18
2018-07-05T00:52:00.679Z,26.06
2018-07-05T00:54:16.529Z,26.18
2018-07-05T00:56:31.919Z,26.22
2018-07-05T00:58:46.502Z,26.22
2018-07-05T01:01:01.125Z,26.02
2018-07-05T01:03:16.472Z,26.18
2018-07-05T01:05:31.325Z,26.18
2018-07-05T01:07:46.146Z,26.24
2018-07-05T01:10:01.011Z,26.15
2018-07-05T01:12:18.579Z,26.22
2018-07-05T01:14:34.207Z,26.27
2018-07-05T01:16:48.707Z,26.16
2018-07-05T01:19:03.223Z,25.80
2018-07-05T01:21:19.013Z,25.94
2018-07-05T01:23:35.426Z,25.89
2018-07-05T01:25:49.966Z,25.58
2018-07-05T01:28:04.717Z,25.85
2018-07-05T01:30:22.337Z,25.48
2018-07-05T01:32:37.975Z,25.57
2018-07-05T01:34:52.679Z,25.51
2018-07-05T01:37:09.176Z,25.37
2018-07-05T01:39:24.260Z,25.55
2018-07-05T01:41:38.801Z,25.53
2018-07-05T01:43:53.788Z,25.36
2018-07-05T01:46:11.190Z,25.57
2018-07-05T01:48:26.107Z,25.91
2018-07-05T01:50:41.071Z,25.89
2018-07-05T01:52:55.929Z,25.90
2018-07-05T01:55:12.854Z,25.96
2018-07-05T01:57:27.775Z,26.13
2018-07-05T01:59:42.404Z,25.90
2018-07-05T02:01:57.036Z,26.07
2018-07-05T02:04:13.730Z,26.07
2018-07-05T02:06:28.267Z,25.79
2018-07-05T02:08:43.954Z,25.45
2018-07-05T02:10:58.288Z,25.45
2018-07-05T02:13:14.792Z,25.64
2018-07-05T02:15:29.629Z,25.57
2018-07-05T02:17:44.299Z,25.31
2018-07-05T02:19:58.841Z,25.30
2018-07-05T02:22:14.385Z,25.24
2018-07-05T02:24:29.297Z,25.04
2018-07-05T02:26:43.991Z,25.22
2018-07-05T02:28:58.766Z,25.54
2018-07-05T02:31:14.401Z,25.73
2018-07-05T02:33:30.296Z,25.70
2018-07-05T02:35:45.643Z,25.56
2018-07-05T02:38:06.796Z,25.57
2018-07-05T02:40:22.719Z,25.28
2018-07-05T02:42:37.163Z,25.31
2018-07-05T02:44:52.126Z,25.36
2018-07-05T02:47:07.107Z,25.28
2018-07-05T02:49:22.497Z,24.99
2018-07-05T02:51:37.382Z,25.10
2018-07-05T02:53:52.223Z,25.18
2018-07-05T02:56:08.867Z,25.15
2018-07-05T02:58:24.924Z,25.20
2018-07-05T03:00:43.280Z,25.06
2018-07-05T03:02:57.761Z,24.91
2018-07-05T03:05:13.723Z,25.03
2018-07-05T03:07:28.263Z,25.06
2018-07-05T03:09:42.765Z,24.90
2018-07-05T03:11:57.501Z,25.00
2018-07-05T03:14:13.800Z,25.05
2018-07-05T03:16:28.408Z,25.11
2018-07-05T03:18:43.425Z,24.88
2018-07-05T03:20:58.095Z,24.71
2018-07-05T03:23:14.496Z,24.68
2018-07-05T03:25:30.628Z,24.60
2018-07-05T03:27:45.093Z,24.88
2018-07-05T03:29:59.769Z,24.88
2018-07-05T03:32:15.411Z,24.89
2018-07-05T03:34:33.926Z,24.90
2018-07-05T03:36:48.605Z,24.68
2018-07-05T03:39:04.071Z,24.81
2018-07-05T03:41:20.706Z,24.88
2018-07-05T03:43:35.411Z,25.00
2018-07-05T03:45:51.096Z,25.07
2018-07-05T03:48:07.525Z,24.91
2018-07-05T03:50:23.040Z,24.70
2018-07-05T03:52:37.943Z,24.83
2018-07-05T03:54:52.594Z,24.68
2018-07-05T03:57:09.702Z,24.73
2018-07-05T03:59:25.312Z,24.70
2018-07-05T04:01:40.207Z,24.91
2018-07-05T04:03:55.009Z,24.93
2018-07-05T04:06:12.281Z,25.04
2018-07-05T04:08:27.099Z,25.07
2018-07-05T04:10:43.081Z,24.64
2018-07-05T04:12:58.971Z,24.74
2018-07-05T04:15:14.797Z,24.72
2018-07-05T04:17:30.119Z,24.86
2018-07-05T04:19:48.083Z,24.66
2018-07-05T04:22:02.924Z,24.69
2018-07-05T04:24:20.384Z,25.17
2018-07-05T04:26:34.931Z,24.88
2018-07-05T04:28:49.661Z,25.02
2018-07-05T04:31:05.210Z,24.73
2018-07-05T04:33:20.159Z,24.98
2018-07-05T04:35:34.615Z,25.03
2018-07-05T04:37:49.355Z,24.85
2018-07-05T04:40:04.877Z,24.78
2018-07-05T04:42:20.889Z,24.92
2018-07-05T04:44:36.112Z,24.84
2018-07-05T04:46:50.647Z,24.94
2018-07-05T04:49:05.578Z,24.82
2018-07-05T04:51:23.264Z,24.84
2018-07-05T04:53:37.893Z,25.06
2018-07-05T04:55:52.379Z,25.02
2018-07-05T04:58:09.020Z,25.04
2018-07-05T05:00:24.358Z,25.31
2018-07-05T05:02:38.984Z,25.62
2018-07-05T05:04:54.023Z,25.58
2018-07-05T05:07:11.036Z,25.82
2018-07-05T05:09:25.923Z,25.78
2018-07-05T05:11:40.807Z,25.64
2018-07-05T05:13:55.388Z,25.81
2018-07-05T05:16:12.461Z,25.91
2018-07-05T05:18:27.592Z,25.83
2018-07-05T05:20:42.313Z,25.91
2018-07-05T05:22:57.378Z,26.07
2018-07-05T05:25:12.906Z,26.16
2018-07-05T05:27:27.647Z,25.98
2018-07-05T05:29:42.743Z,25.95
2018-07-05T05:31:57.340Z,25.93
2018-07-05T05:34:13.056Z,26.06
2018-07-05T05:36:27.887Z,26.11
2018-07-05T05:38:42.776Z,26.26
2018-07-05T05:40:57.912Z,26.16
2018-07-05T05:43:14.295Z,26.13
2018-07-05T05:45:28.859Z,26.07
2018-07-05T05:47:43.620Z,26.05
2018-07-05T05:49:58.622Z,26.05
2018-07-05T05:52:14.346Z,26.02
2018-07-05T05:54:29.053Z,26.01
2018-07-05T05:56:44.064Z,25.90
2018-07-05T05:58:58.877Z,25.84
2018-07-05T06:01:14.301Z,26.01
2018-07-05T06:03:29.036Z,26.15
2018-07-05T06:05:43.599Z,26.03
2018-07-05T06:07:58.606Z,26.06
2018-07-05T06:10:14.341Z,26.25
2018-07-05T06:12:28.831Z,26.25
2018-07-05T06:14:43.596Z,26.32
2018-07-05T06:16:58.057Z,26.48
2018-07-05T06:19:13.415Z,26.58
2018-07-05T06:21:29.028Z,26.65
2018-07-05T06:23:44.474Z,26.70
2018-07-05T06:25:58.980Z,26.75
2018-07-05T06:28:14.870Z,26.71
2018-07-05T06:30:29.546Z,26.81
2018-07-05T06:32:44.172Z,26.81
2018-07-05T06:34:59.051Z,26.90
2018-07-05T06:37:14.904Z,26.90
2018-07-05T06:39:30.234Z,26.92
2018-07-05T06:41:45.829Z,26.92
2018-07-05T06:44:00.861Z,27.01
2018-07-05T06:46:16.395Z,26.93
2018-07-05T06:48:31.009Z,27.01
2018-07-05T06:50:45.687Z,27.04
2018-07-05T06:53:00.713Z,27.04
2018-07-05T06:57:37.492Z,27.12
2018-07-05T06:59:52.720Z,27.09
2018-07-05T07:02:09.555Z,27.10
2018-07-05T07:04:26.491Z,27.14
2018-07-05T07:06:41.141Z,27.14
2018-07-05T07:08:56.259Z,27.24
2018-07-05T07:11:13.484Z,27.26
2018-07-05T07:13:28.480Z,27.15
2018-07-05T07:15:44.001Z,27.21
2018-07-05T07:17:59.492Z,27.32
2018-07-05T07:20:15.915Z,27.37
2018-07-05T07:22:31.328Z,27.40
2018-07-05T07:24:46.017Z,27.44
2018-07-05T07:27:02.616Z,27.48
2018-07-05T07:29:18.753Z,27.48
2018-07-05T07:31:35.313Z,27.52
2018-07-05T07:33:50.620Z,27.51
2018-07-05T07:36:08.382Z,27.53
2018-07-05T07:38:24.169Z,27.57
2018-07-05T07:40:41.332Z,27.58
2018-07-05T07:42:44.005Z,27.60
2018-07-05T07:44:47.638Z,27.62
2018-07-05T07:46:50.244Z,27.64
2018-07-05T07:48:52.832Z,27.65
2018-07-05T07:50:55.204Z,27.66
2018-07-05T07:52:58.580Z,27.70
2018-07-05T07:55:01.099Z,27.73
2018-07-05T07:57:04.833Z,27.75
2018-07-05T07:59:09.409Z,27.73
2018-07-05T08:01:13.790Z,27.75
2018-07-05T08:03:19.561Z,27.78
2018-07-05T08:05:23.796Z,27.79
2018-07-05T08:07:26.061Z,27.80
2018-07-05T08:09:29.667Z,27.82
2018-07-05T08:11:32.535Z,27.82
2018-07-05T08:13:34.849Z,27.82
2018-07-05T08:15:37.535Z,27.84
2018-07-05T08:17:40.694Z,27.84
2018-07-05T08:19:43.466Z,27.84
2018-07-05T08:21:46.556Z,27.86
2018-07-05T08:23:48.848Z,27.87
2018-07-05T08:25:51.433Z,27.88
2018-07-05T08:27:54.475Z,27.90
2018-07-05T08:29:57.228Z,27.91
2018-07-05T08:31:59.663Z,27.91
2018-07-05T08:34:02.359Z,27.92
2018-07-05T08:36:06.371Z,27.93
2018-07-05T08:38:11.984Z,27.92
2018-07-05T08:40:15.300Z,27.96
2018-07-05T08:42:19.495Z,27.97
2018-07-05T08:44:22.088Z,27.99
2018-07-05T08:46:24.661Z,28.00
2018-07-05T08:48:27.433Z,28.01
2018-07-05T08:50:31.043Z,27.99
2018-07-05T08:52:33.545Z,28.02
2018-07-05T08:54:36.422Z,28.04
2018-07-05T08:56:38.881Z,28.04
2018-07-05T08:58:41.412Z,28.05
2018-07-05T09:00:44.031Z,28.05
2018-07-05T09:02:46.312Z,28.05
2018-07-05T09:04:48.873Z,28.08
2018-07-05T09:06:51.802Z,28.08
2018-07-05T09:08:55.228Z,28.09
2018-07-05T09:10:58.729Z,28.13
2018-07-05T09:13:05.248Z,28.12
2018-07-05T09:15:09.887Z,28.12
2018-07-05T09:17:14.001Z,28.10
2018-07-05T09:19:21.161Z,28.13
2018-07-05T09:21:24.193Z,28.14
2018-07-05T09:23:26.431Z,28.14
2018-07-05T09:25:29.344Z,28.17
2018-07-05T09:27:31.611Z,28.18
2018-07-05T09:29:34.193Z,28.16
2018-07-05T09:31:36.964Z,28.16
2018-07-05T09:33:39.548Z,28.17
2018-07-05T09:35:41.947Z,28.17
2018-07-05T09:37:45.297Z,28.17
2018-07-05T09:39:52.278Z,28.16
2018-07-05T09:41:54.558Z,28.20
2018-07-05T09:43:56.867Z,28.20
2018-07-05T09:45:59.084Z,28.22
2018-07-05T09:48:01.535Z,28.27
2018-07-05T09:50:04.582Z,28.24
2018-07-05T09:52:06.903Z,28.24
2018-07-05T09:54:10.209Z,28.26
2018-07-05T09:56:15.319Z,28.28
2018-07-05T09:58:19.251Z,28.30
2018-07-05T10:00:52.340Z,28.33
2018-07-05T10:02:54.771Z,28.35
2018-07-05T10:04:57.538Z,28.37
2018-07-05T10:06:59.777Z,28.48
2018-07-05T10:09:01.990Z,28.47
2018-07-05T10:11:04.858Z,28.49
2018-07-05T10:13:08.843Z,28.48
2018-07-05T10:15:13.892Z,28.49
2018-07-05T10:17:17.402Z,28.55
2018-07-05T10:19:23.781Z,28.60
2018-07-05T10:21:26.639Z,28.63
2018-07-05T10:23:30.319Z,28.64
2018-07-05T10:25:32.855Z,28.72
2018-07-05T10:27:38.950Z,28.82
2018-07-05T10:29:54.314Z,28.82
2018-07-05T10:32:12.369Z,28.84
2018-07-05T10:34:16.555Z,28.86
2018-07-05T10:36:22.483Z,28.88
2018-07-05T10:38:28.110Z,28.94
2018-07-05T10:40:46.442Z,28.98
2018-07-05T10:43:01.687Z,28.94
2018-07-05T10:45:20.957Z,28.97
2018-07-05T10:47:36.969Z,29.07
2018-07-05T10:49:52.879Z,29.08
2018-07-05T10:52:11.183Z,29.05
2018-07-05T10:54:28.400Z,29.07
2018-07-05T10:56:43.267Z,29.17
2018-07-05T10:58:57.968Z,29.21
2018-07-05T11:01:13.686Z,29.24
2018-07-05T11:03:30.070Z,29.26
2018-07-05T11:05:45.396Z,29.19
2018-07-05T11:08:02.475Z,29.20
2018-07-05T11:10:24.135Z,29.26
2018-07-05T11:12:40.271Z,29.36
2018-07-05T11:14:56.647Z,29.42
2018-07-05T11:17:14.811Z,29.43
2018-07-05T11:19:30.115Z,29.39
2018-07-05T11:21:45.394Z,29.32
2018-07-05T11:24:00.146Z,29.30
2018-07-05T11:26:16.164Z,29.39
2018-07-05T11:28:32.571Z,29.42
2018-07-05T11:30:47.301Z,29.45
2018-07-05T11:34:05.168Z,29.48
2018-07-05T11:36:21.149Z,29.47
2018-07-05T11:38:37.696Z,29.46
2018-07-05T11:40:52.577Z,29.61
2018-07-05T11:43:18.242Z,29.66
2018-07-05T11:45:33.688Z,29.60
2018-07-05T11:47:50.770Z,29.60
2018-07-05T11:50:08.243Z,29.58
2018-07-05T11:52:25.455Z,29.62
2018-07-05T11:54:42.181Z,29.70
2018-07-05T11:56:59.536Z,29.76
2018-07-05T11:59:16.464Z,29.70
2018-07-05T12:01:38.125Z,29.76
2018-07-05T12:03:56.539Z,29.87
2018-07-05T12:06:15.591Z,29.95
2018-07-05T12:08:30.742Z,30.12
2018-07-05T12:10:46.693Z,30.44
2018-07-05T12:13:01.676Z,30.80
2018-07-05T12:15:18.697Z,31.16
2018-07-05T12:17:35.090Z,31.54
2018-07-05T12:19:50.399Z,31.59
2018-07-05T12:22:05.981Z,31.35
2018-07-05T12:24:21.513Z,31.85
2018-07-05T12:26:37.618Z,32.07
2018-07-05T12:28:52.293Z,32.55
2018-07-05T12:31:07.730Z,32.21
2018-07-05T12:33:23.505Z,32.47
2018-07-05T12:35:38.255Z,32.05
2018-07-05T12:37:53.134Z,31.81
2018-07-05T12:40:09.449Z,32.75
2018-07-05T12:42:24.886Z,32.63
2018-07-05T12:44:39.381Z,32.03
2018-07-05T12:46:54.455Z,32.23
2018-07-05T12:49:11.324Z,32.39
2018-07-05T12:51:25.961Z,31.71
2018-07-05T12:53:40.721Z,32.28
2018-07-05T12:55:55.364Z,33.22
2018-07-05T12:58:11.156Z,33.58
2018-07-05T13:00:26.252Z,34.07
2018-07-05T13:02:41.029Z,34.82
2018-07-05T13:04:57.124Z,35.21
2018-07-05T13:07:13.749Z,35.34
2018-07-05T13:09:29.662Z,35.13
2018-07-05T13:11:44.429Z,35.27
2018-07-05T13:13:59.045Z,35.31
2018-07-05T13:16:16.428Z,35.68
2018-07-05T13:18:35.694Z,35.74
2018-07-05T13:20:50.878Z,35.88
2018-07-05T13:23:05.676Z,35.72
2018-07-05T13:25:23.646Z,35.24
2018-07-05T13:30:02.719Z,35.46
2018-07-05T13:32:24.429Z,35.62
2018-07-05T13:34:39.824Z,35.08
2018-07-05T13:36:54.880Z,34.43
2018-07-05T13:39:12.166Z,34.26
2018-07-05T13:41:29.208Z,34.15
2018-07-05T13:43:44.049Z,34.04
2018-07-05T13:45:59.723Z,33.73
2018-07-05T13:48:15.860Z,33.53
2018-07-05T13:50:31.806Z,33.77
2018-07-05T13:52:49.180Z,33.47
2018-07-05T13:55:06.386Z,33.64
2018-07-05T13:57:22.956Z,33.97
2018-07-05T13:59:39.173Z,33.89
2018-07-05T14:01:58.800Z,33.97
2018-07-05T14:04:16.466Z,33.83
2018-07-05T14:06:35.041Z,33.81
2018-07-05T14:08:50.827Z,33.79
2018-07-05T14:11:07.129Z,33.52
2018-07-05T14:13:22.905Z,33.44
2018-07-05T14:15:38.025Z,33.18
2018-07-05T14:17:53.646Z,33.10
2018-07-05T14:20:12.452Z,32.99
2018-07-05T14:22:29.267Z,32.92
2018-07-05T14:24:45.268Z,32.86
2018-07-05T14:27:00.986Z,32.60
2018-07-05T14:29:20.774Z,32.49
2018-07-05T14:31:36.705Z,32.37
2018-07-05T14:33:51.670Z,32.19
2018-07-05T14:36:08.296Z,32.29
2018-07-05T14:38:23.457Z,32.41
2018-07-05T14:40:38.958Z,32.56
2018-07-05T14:42:56.252Z,32.61
2018-07-05T14:45:12.982Z,32.56
2018-07-05T14:47:28.557Z,32.63
2018-07-05T14:49:44.321Z,32.58
2018-07-05T14:51:58.907Z,32.34
2018-07-05T14:54:14.354Z,32.24
2018-07-05T14:56:29.484Z,32.18
2018-07-05T14:58:44.719Z,32.10
2018-07-05T15:00:59.757Z,32.03
2018-07-05T15:03:21.082Z,31.90
2018-07-05T15:05:37.121Z,31.88
2018-07-05T15:07:51.693Z,31.71
2018-07-05T15:10:08.908Z,31.68
2018-07-05T15:12:23.804Z,31.67
2018-07-05T15:14:39.319Z,31.61
2018-07-05T15:16:54.963Z,31.63
2018-07-05T15:19:10.866Z,31.55
2018-07-05T15:21:27.099Z,31.56
2018-07-05T15:23:41.970Z,31.50
2018-07-05T15:25:57.234Z,31.47
2018-07-05T15:28:14.487Z,31.40
2018-07-05T15:30:30.426Z,31.31
2018-07-05T15:32:45.996Z,31.27
2018-07-05T15:35:01.207Z,31.26
2018-07-05T15:37:19.917Z,31.23
2018-07-05T15:39:35.120Z,31.18
2018-07-05T15:41:51.183Z,31.17
2018-07-05T15:44:08.233Z,31.13
2018-07-05T15:46:24.261Z,31.16
2018-07-05T15:48:41.278Z,31.20
2018-07-05T15:50:56.262Z,31.19
2018-07-05T15:53:13.586Z,31.27
2018-07-05T15:55:29.619Z,31.35
2018-07-05T15:57:47.541Z,31.43
2018-07-05T16:00:04.663Z,31.43
2018-07-05T16:02:21.125Z,31.48
2018-07-05T16:04:44.252Z,31.44
2018-07-05T16:07:01.182Z,31.41
2018-07-05T16:09:17.745Z,31.41
2018-07-05T16:11:33.010Z,31.42
2018-07-05T16:13:48.351Z,31.37
2018-07-05T16:16:05.874Z,31.28
2018-07-05T16:18:24.881Z,31.30
2018-07-05T16:20:42.399Z,31.27
2018-07-05T16:22:57.380Z,31.42
2018-07-05T16:27:47.700Z,31.21
2018-07-05T16:30:04.409Z,31.14
2018-07-05T16:32:24.056Z,30.96
2018-07-05T16:34:40.562Z,30.90
2018-07-05T16:36:56.309Z,30.83
2018-07-05T16:39:14.414Z,30.72
2018-07-05T16:41:29.216Z,30.61
2018-07-05T16:43:44.454Z,30.51
2018-07-05T16:46:04.915Z,30.40
2018-07-05T16:48:27.427Z,30.25
2018-07-05T16:50:42.252Z,30.06
2018-07-05T16:52:57.715Z,29.76
2018-07-05T16:55:14.888Z,29.55
2018-07-05T16:57:29.546Z,29.36
2018-07-05T16:59:45.449Z,29.21
2018-07-05T17:02:01.379Z,29.14
2018-07-05T17:04:18.509Z,29.10
2018-07-05T17:06:39.273Z,29.02
2018-07-05T17:08:54.724Z,28.84
2018-07-05T17:11:11.343Z,28.67
2018-07-05T17:13:34.371Z,28.61
2018-07-05T17:15:50.505Z,28.52
2018-07-05T17:18:06.336Z,28.36
2018-07-05T17:20:23.969Z,28.32
2018-07-05T17:22:39.360Z,28.24
2018-07-05T17:24:53.943Z,28.13
2018-07-05T17:27:13.588Z,27.97
2018-07-05T17:29:29.785Z,27.97
2018-07-05T17:31:45.143Z,27.95
2018-07-05T17:34:01.463Z,27.74
2018-07-05T17:36:20.701Z,27.79
2018-07-05T17:38:35.989Z,27.83
2018-07-05T17:40:52.341Z,27.65
2018-07-05T17:43:10.955Z,27.69
2018-07-05T17:45:30.242Z,27.71
2018-07-05T17:47:48.365Z,27.67
2018-07-05T17:50:06.684Z,27.78
2018-07-05T17:52:23.875Z,27.80
2018-07-05T17:54:40.018Z,27.89
2018-07-05T17:59:44.494Z,27.87
2018-07-05T18:02:00.928Z,27.96
2018-07-05T18:04:17.435Z,27.98
2018-07-05T18:06:32.697Z,27.96
2018-07-05T18:08:47.786Z,27.86
2018-07-05T18:11:05.504Z,27.96
2018-07-05T18:13:23.840Z,27.59
2018-07-05T18:15:41.078Z,27.69
2018-07-05T18:17:57.982Z,27.40
2018-07-05T18:20:20.476Z,27.31
2018-07-05T18:22:36.437Z,27.44
2018-07-05T18:24:51.003Z,27.54
2018-07-05T18:27:07.784Z,27.58
2018-07-05T18:29:26.945Z,27.68
2018-07-05T18:31:41.847Z,27.80
2018-07-05T18:33:56.581Z,27.58
2018-07-05T18:36:14.545Z,27.47
2018-07-05T18:38:33.339Z,27.43
2018-07-05T18:40:49.792Z,27.30
2018-07-05T18:43:05.417Z,27.55
2018-07-05T18:45:21.151Z,27.55
2018-07-05T18:47:36.156Z,27.38
2018-07-05T18:49:51.284Z,27.39
2018-07-05T18:52:14.582Z,27.38
2018-07-05T18:54:32.983Z,27.44
2018-07-05T18:56:55.338Z,27.54
2018-07-05T18:59:15.649Z,27.44
2018-07-05T19:01:43.571Z,27.46
2018-07-05T19:04:08.592Z,27.33
2018-07-05T19:06:31.489Z,27.24
2018-07-05T19:08:57.547Z,27.04
2018-07-05T19:11:17.026Z,27.09
2018-07-05T19:13:32.990Z,27.14
2018-07-05T19:15:48.947Z,27.12
2018-07-05T19:18:15.530Z,27.24
2018-07-05T19:20:31.955Z,27.25
2018-07-05T19:22:48.558Z,27.08
2018-07-05T19:25:03.650Z,26.94
2018-07-05T19:27:23.297Z,26.87
2018-07-05T19:29:40.202Z,26.56
2018-07-05T19:31:55.719Z,26.67
2018-07-05T19:34:13.500Z,26.60
2018-07-05T19:36:31.686Z,26.59
2018-07-05T19:38:53.300Z,26.65
2018-07-05T19:41:12.747Z,26.51
2018-07-05T19:43:27.491Z,26.64
2018-07-05T19:45:42.119Z,26.73
2018-07-05T19:47:57.463Z,26.64
2018-07-05T19:50:14.453Z,26.48
2018-07-05T19:52:30.337Z,26.60
2018-07-05T19:54:46.755Z,26.30
2018-07-05T19:57:05.903Z,26.68
2018-07-05T19:59:21.611Z,26.78
2018-07-05T20:01:38.938Z,26.65
2018-07-05T20:03:54.421Z,26.55
2018-07-05T20:06:12.066Z,26.38
2018-07-05T20:08:28.428Z,26.51
2018-07-05T20:10:49.079Z,26.07
2018-07-05T20:13:07.517Z,25.96
2018-07-05T20:15:23.457Z,26.26
2018-07-05T20:17:39.495Z,26.25
2018-07-05T20:19:54.080Z,25.94
2018-07-05T20:22:15.631Z,26.16
2018-07-05T20:24:37.434Z,26.12
2018-07-05T20:26:53.245Z,26.25
2018-07-05T20:29:10.862Z,26.29
2018-07-05T20:31:26.294Z,26.54
2018-07-05T20:33:41.405Z,26.27
2018-07-05T20:35:56.524Z,26.03
2018-07-05T20:38:12.926Z,25.95
2018-07-05T20:40:29.883Z,25.86
2018-07-05T20:42:45.616Z,26.09
2018-07-05T20:45:01.594Z,25.86
2018-07-05T20:47:18.424Z,25.85
2018-07-05T20:49:35.004Z,25.74
2018-07-05T20:51:51.293Z,25.72
2018-07-05T20:54:15.963Z,25.41
2018-07-05T20:56:31.035Z,25.44
2018-07-05T20:58:46.752Z,25.79
2018-07-05T21:01:05.859Z,25.90
2018-07-05T21:03:22.521Z,25.88
2018-07-05T21:05:38.045Z,25.65
2018-07-05T21:07:55.365Z,25.51
2018-07-05T21:10:12.709Z,25.98
2018-07-05T21:12:29.853Z,25.93
2018-07-05T21:14:48.660Z,26.16
2018-07-05T21:17:04.326Z,25.96
2018-07-05T21:19:20.020Z,26.04
2018-07-05T21:21:35.238Z,25.84
2018-07-05T21:23:50.230Z,25.80
2018-07-05T21:26:05.848Z,25.78
2018-07-05T21:28:23.630Z,25.76
2018-07-05T21:30:38.220Z,25.57
2018-07-05T21:32:53.103Z,25.35
2018-07-05T21:35:10.999Z,25.62
2018-07-05T21:37:25.903Z,25.61
2018-07-05T21:39:40.847Z,25.43
2018-07-05T21:41:56.575Z,25.57
2018-07-05T21:44:14.064Z,25.60
2018-07-05T21:46:29.191Z,25.46
2018-07-05T21:48:44.730Z,25.35
2018-07-05T21:50:59.918Z,25.17
2018-07-05T21:53:17.435Z,25.24
2018-07-05T21:55:33.667Z,25.46
2018-07-05T21:57:52.371Z,25.29
2018-07-05T22:00:11.682Z,25.43
2018-07-05T22:02:55.564Z,25.69
2018-07-05T22:05:19.806Z,25.62
2018-07-05T22:07:34.596Z,25.75
2018-07-05T22:09:49.876Z,25.62
2018-07-05T22:12:05.929Z,25.58
2018-07-05T22:14:21.747Z,25.44
2018-07-05T22:16:43.724Z,25.43
2018-07-05T22:19:04.373Z,25.43
2018-07-05T22:21:20.615Z,25.31
2018-07-05T22:23:40.461Z,25.41
2018-07-05T22:26:00.768Z,25.44
2018-07-05T22:28:22.265Z,25.41
2018-07-05T22:30:42.434Z,25.53
2018-07-05T22:32:58.194Z,25.41
2018-07-05T22:35:15.457Z,25.18
2018-07-05T22:37:30.784Z,25.24
2018-07-05T22:39:46.196Z,24.88
2018-07-05T22:42:01.525Z,25.28
2018-07-05T22:44:23.461Z,25.19
2018-07-05T22:46:40.252Z,24.88
2018-07-05T22:48:56.314Z,25.00
2018-07-05T22:51:13.418Z,25.02
2018-07-05T22:53:29.415Z,25.40
2018-07-05T22:55:45.711Z,25.43
2018-07-05T22:58:00.341Z,25.53
2018-07-05T23:00:15.778Z,25.52
2018-07-05T23:02:30.745Z,25.40
2018-07-05T23:04:46.006Z,25.33
2018-07-05T23:07:01.741Z,25.38
2018-07-05T23:09:19.392Z,25.27
2018-07-05T23:11:34.533Z,25.13
2018-07-05T23:13:49.237Z,24.97
2018-07-05T23:16:04.259Z,24.83
2018-07-05T23:18:21.806Z,24.90
2018-07-05T23:20:37.782Z,25.15
2018-07-05T23:22:52.500Z,25.40
2018-07-05T23:25:09.506Z,25.48
2018-07-05T23:27:24.926Z,25.18
2018-07-05T23:29:39.697Z,25.46
2018-07-05T23:31:54.329Z,25.60
2018-07-05T23:34:11.450Z,25.53
2018-07-05T23:36:26.210Z,25.70
2018-07-05T23:38:43.556Z,25.86
2018-07-05T23:40:58.191Z,26.00
2018-07-05T23:43:14.127Z,25.70
2018-07-05T23:45:29.000Z,25.45
2018-07-05T23:47:43.801Z,25.61
2018-07-05T23:49:58.589Z,25.80
2018-07-05T23:52:14.399Z,25.86
2018-07-05T23:54:29.078Z,25.68
2018-07-05T23:56:43.943Z,25.66
2018-07-05T23:58:58.377Z,25.63
